Time;durP1;ratioP1;P1;durP2;ratioP2;P2;SDS_P1;SDS_P2;PMS_P1;PMS_P2;Temp;Humidity;BMP_temperature;BMP_pressure;BME280_temperature;BME280_humidity;BME280_pressure;Samples;Min_cycle;Max_cycle;Signal;HPM_P1;HPM_P2
2021/12/20 00:02:13;;;;;;;47.15;22.05;;;;;;;;;;5094115;28;20032;-66
2021/12/20 00:04:40;;;;;;;40.70;21.60;;;;;;;;;;5092891;28;20454;-64
2021/12/20 00:07:06;;;;;;;40.40;20.73;;;;;;;;;;5094106;28;20034;-64
2021/12/20 00:09:32;;;;;;;36.03;19.90;;;;;;;;;;5092876;28;20123;-64
2021/12/20 00:11:58;;;;;;;34.58;19.38;;;;;;;;;;5092654;28;20035;-63
2021/12/20 00:14:24;;;;;;;39.75;20.10;;;;;;;;;;5092687;28;20483;-63
2021/12/20 00:16:51;;;;;;;37.85;20.55;;;;;;;;;;5093977;28;20178;-63
2021/12/20 00:19:17;;;;;;;36.33;19.30;;;;;;;;;;5093406;28;20024;-64
2021/12/20 00:21:43;;;;;;;34.70;17.90;;;;;;;;;;5087963;28;20059;-64
2021/12/20 00:24:10;;;;;;;33.30;19.05;;;;;;;;;;5083474;28;20372;-65
2021/12/20 00:26:36;;;;;;;37.30;18.08;;;;;;;;;;5081930;28;20038;-64
2021/12/20 00:29:03;;;;;;;38.50;19.73;;;;;;;;;;5081899;28;20024;-64
2021/12/20 00:31:29;;;;;;;33.38;17.55;;;;;;;;;;5083546;28;20020;-64
2021/12/20 00:33:55;;;;;;;33.17;17.48;;;;;;;;;;5080437;28;20048;-64
2021/12/20 00:36:22;;;;;;;39.88;16.98;;;;;;;;;;5082213;28;20103;-65
2021/12/20 00:41:34;;;;;;;33.05;17.15;;;;;;;;;;5072789;28;20089;-63
2021/12/20 00:44:00;;;;;;;35.67;18.30;;;;;;;;;;5072001;28;20026;-63
2021/12/20 00:46:27;;;;;;;31.08;16.98;;;;;;;;;;5071699;28;20105;-64
2021/12/20 00:48:54;;;;;;;29.77;16.50;;;;;;;;;;5073274;28;20032;-65
2021/12/20 00:51:20;;;;;;;32.20;17.25;;;;;;;;;;5071558;28;20143;-63
2021/12/20 00:53:46;;;;;;;32.72;17.20;;;;;;;;;;5071912;28;20036;-64
2021/12/20 00:56:12;;;;;;;32.50;16.73;;;;;;;;;;5073189;28;20058;-63
2021/12/20 00:58:39;;;;;;;32.17;17.40;;;;;;;;;;5073427;28;20115;-64
2021/12/20 01:01:06;;;;;;;33.95;16.35;;;;;;;;;;5071862;28;20385;-64
2021/12/20 01:03:32;;;;;;;37.13;17.63;;;;;;;;;;5073126;28;20062;-64
2021/12/20 01:05:59;;;;;;;33.70;17.23;;;;;;;;;;5073237;28;20038;-64
2021/12/20 01:08:29;;;;;;;30.17;15.48;;;;;;;;;;5073031;28;20107;-63
2021/12/20 01:10:56;;;;;;;22.52;14.27;;;;;;;;;;5073098;28;20025;-65
2021/12/20 01:13:25;;;;;;;24.90;14.95;;;;;;;;;;5073011;28;20024;-64
2021/12/20 01:15:54;;;;;;;29.88;15.88;;;;;;;;;;5071404;28;20064;-63
2021/12/20 01:18:21;;;;;;;30.73;15.63;;;;;;;;;;5072987;28;20027;-65
2021/12/20 01:20:47;;;;;;;26.30;14.00;;;;;;;;;;5072985;28;20103;-64
2021/12/20 01:23:14;;;;;;;26.33;14.40;;;;;;;;;;5071578;28;20119;-64
2021/12/20 01:25:41;;;;;;;25.00;14.50;;;;;;;;;;5071523;28;20388;-65
2021/12/20 01:28:08;;;;;;;25.52;13.10;;;;;;;;;;5071603;28;20025;-65
2021/12/20 01:30:35;;;;;;;25.05;13.02;;;;;;;;;;5072881;28;20029;-65
2021/12/20 01:33:01;;;;;;;22.52;12.68;;;;;;;;;;5071536;28;20059;-64
2021/12/20 01:35:28;;;;;;;21.23;11.73;;;;;;;;;;5072784;28;20032;-64
2021/12/20 01:37:55;;;;;;;20.33;12.63;;;;;;;;;;5073023;28;20033;-64
2021/12/20 01:40:22;;;;;;;19.58;11.18;;;;;;;;;;5071536;28;20438;-65
2021/12/20 01:42:52;;;;;;;16.70;10.82;;;;;;;;;;5071422;28;20063;-65
2021/12/20 01:45:19;;;;;;;19.30;12.35;;;;;;;;;;5072716;28;20047;-62
2021/12/20 01:47:50;;;;;;;22.02;11.85;;;;;;;;;;5074190;28;20029;-62
2021/12/20 01:52:44;;;;;;;23.95;10.82;;;;;;;;;;5076574;28;20033;-63
2021/12/20 01:55:14;;;;;;;16.20;10.07;;;;;;;;;;5076285;28;20433;-63
2021/12/20 01:57:41;;;;;;;19.05;11.68;;;;;;;;;;5076207;28;20381;-64
2021/12/20 02:00:10;;;;;;;16.98;10.52;;;;;;;;;;5076471;28;20021;-63
2021/12/20 02:02:36;;;;;;;21.50;10.55;;;;;;;;;;5076405;28;20108;-62
2021/12/20 02:05:14;;;;;;;22.02;10.65;;;;;;;;;;5076383;28;20068;-63
2021/12/20 02:07:52;;;;;;;22.13;11.38;;;;;;;;;;5076296;28;20119;-63
2021/12/20 02:10:19;;;;;;;18.70;10.02;;;;;;;;;;5075004;28;20496;-65
2021/12/20 02:12:45;;;;;;;16.30;9.65;;;;;;;;;;5076188;28;20051;-63
2021/12/20 02:15:12;;;;;;;19.00;10.50;;;;;;;;;;5076426;28;20056;-65
2021/12/20 02:17:39;;;;;;;18.08;10.52;;;;;;;;;;5074793;28;20032;-65
2021/12/20 02:20:06;;;;;;;17.90;10.95;;;;;;;;;;5076082;28;20039;-64
2021/12/20 02:22:32;;;;;;;18.05;10.32;;;;;;;;;;5076024;28;20052;-63
2021/12/20 02:24:58;;;;;;;18.95;9.98;;;;;;;;;;5076258;28;20107;-64
2021/12/20 02:27:24;;;;;;;18.13;9.75;;;;;;;;;;5074562;28;20043;-64
2021/12/20 02:30:06;;;;;;;15.07;9.45;;;;;;;;;;5074567;28;20492;-64
2021/12/20 02:38:02;;;;;;;11.75;8.02;;;;;;;;;;5075813;28;20040;-63
2021/12/20 02:40:28;;;;;;;12.15;8.30;;;;;;;;;;5076037;28;20064;-63
2021/12/20 02:42:54;;;;;;;14.75;9.23;;;;;;;;;;5074383;28;20437;-63
2021/12/20 02:45:22;;;;;;;13.48;8.80;;;;;;;;;;5075614;28;20028;-63
2021/12/20 02:47:49;;;;;;;15.32;8.80;;;;;;;;;;5075284;28;20552;-63
2021/12/20 02:50:16;;;;;;;13.50;7.50;;;;;;;;;;5074084;28;20076;-63
2021/12/20 02:52:42;;;;;;;13.68;8.77;;;;;;;;;;5075461;28;20029;-64
2021/12/20 02:55:09;;;;;;;14.50;8.50;;;;;;;;;;5074123;28;20119;-63
2021/12/20 02:57:36;;;;;;;15.13;8.88;;;;;;;;;;5074787;28;20048;-64
2021/12/20 03:00:05;;;;;;;14.35;7.80;;;;;;;;;;5074745;28;20021;-64
2021/12/20 03:02:31;;;;;;;13.73;7.90;;;;;;;;;;5075362;28;20020;-62
2021/12/20 03:04:57;;;;;;;12.02;7.50;;;;;;;;;;5075205;28;20060;-63
2021/12/20 03:07:26;;;;;;;11.90;7.32;;;;;;;;;;5075133;28;20036;-62
2021/12/20 03:10:01;;;;;;;12.40;7.55;;;;;;;;;;5075165;28;20031;-63
2021/12/20 03:12:30;;;;;;;12.07;7.15;;;;;;;;;;5075192;28;20069;-63
2021/12/20 03:15:07;;;;;;;13.32;8.10;;;;;;;;;;5073807;28;20024;-64
2021/12/20 03:17:34;;;;;;;12.18;7.97;;;;;;;;;;5075102;28;20039;-63
2021/12/20 03:20:00;;;;;;;15.82;8.85;;;;;;;;;;5074968;28;20016;-64
2021/12/20 03:22:26;;;;;;;16.83;9.00;;;;;;;;;;5074946;28;20024;-64
2021/12/20 03:24:52;;;;;;;16.85;8.20;;;;;;;;;;5074887;28;20025;-63
2021/12/20 03:27:19;;;;;;;12.85;7.53;;;;;;;;;;5074777;28;20036;-64
2021/12/20 03:29:45;;;;;;;14.85;7.30;;;;;;;;;;5074776;28;20024;-63
2021/12/20 03:32:11;;;;;;;13.48;7.75;;;;;;;;;;5073530;28;20381;-62
2021/12/20 03:34:37;;;;;;;13.20;7.50;;;;;;;;;;5074687;28;20024;-64
2021/12/20 03:37:04;;;;;;;13.35;7.15;;;;;;;;;;5073312;28;20173;-63
2021/12/20 03:39:30;;;;;;;11.70;8.13;;;;;;;;;;5074593;28;20115;-63
2021/12/20 03:41:56;;;;;;;13.77;7.38;;;;;;;;;;5074562;28;20056;-63
2021/12/20 03:44:23;;;;;;;12.63;8.73;;;;;;;;;;5074465;28;20028;-65
2021/12/20 03:46:49;;;;;;;10.95;7.13;;;;;;;;;;5074375;28;20062;-64
2021/12/20 03:49:15;;;;;;;10.88;6.70;;;;;;;;;;5074400;28;20052;-66
2021/12/20 03:51:42;;;;;;;12.43;7.07;;;;;;;;;;5073912;28;20041;-64
2021/12/20 03:54:08;;;;;;;15.80;8.27;;;;;;;;;;5074281;28;20476;-65
2021/12/20 03:56:35;;;;;;;12.90;7.18;;;;;;;;;;5074192;28;20035;-65
2021/12/20 03:59:01;;;;;;;15.77;8.55;;;;;;;;;;5074192;28;20522;-64
2021/12/20 04:01:28;;;;;;;13.15;7.55;;;;;;;;;;5072850;28;20449;-64
2021/12/20 04:03:57;;;;;;;16.35;8.43;;;;;;;;;;5072798;28;20488;-65
2021/12/20 04:06:23;;;;;;;14.40;7.50;;;;;;;;;;5073983;28;20032;-65
2021/12/20 04:08:50;;;;;;;14.43;7.32;;;;;;;;;;5072623;28;20031;-65
2021/12/20 04:11:16;;;;;;;15.52;8.02;;;;;;;;;;5073787;28;20059;-65
2021/12/20 04:13:42;;;;;;;13.82;7.68;;;;;;;;;;5072645;28;20024;-64
2021/12/20 04:16:08;;;;;;;14.95;7.78;;;;;;;;;;5073885;28;20025;-65
2021/12/20 04:18:35;;;;;;;13.20;8.45;;;;;;;;;;5073823;28;20021;-66
2021/12/20 04:21:01;;;;;;;12.05;7.65;;;;;;;;;;5072388;28;20120;-66
2021/12/20 04:23:28;;;;;;;12.52;7.82;;;;;;;;;;5072411;28;20119;-66
2021/12/20 04:25:54;;;;;;;9.75;6.68;;;;;;;;;;5073546;28;20036;-67
2021/12/20 04:28:20;;;;;;;10.43;6.60;;;;;;;;;;5073637;28;20060;-65
2021/12/20 04:30:46;;;;;;;9.93;6.15;;;;;;;;;;5073551;28;20111;-66
2021/12/20 04:33:12;;;;;;;7.97;6.03;;;;;;;;;;5072320;28;20530;-65
2021/12/20 04:35:39;;;;;;;15.02;7.30;;;;;;;;;;5073754;28;20039;-65
2021/12/20 04:38:07;;;;;;;11.90;6.45;;;;;;;;;;5073469;28;20060;-67
2021/12/20 04:40:34;;;;;;;7.28;5.55;;;;;;;;;;5073374;28;20057;-65
2021/12/20 04:43:01;;;;;;;10.55;6.25;;;;;;;;;;5072160;28;20530;-65
2021/12/20 04:45:28;;;;;;;9.07;6.38;;;;;;;;;;5073366;28;20025;-66
2021/12/20 04:47:54;;;;;;;9.38;5.63;;;;;;;;;;5073287;28;20538;-66
2021/12/20 04:50:21;;;;;;;9.18;5.47;;;;;;;;;;5073154;28;20040;-65
2021/12/20 04:52:48;;;;;;;8.27;5.57;;;;;;;;;;5073286;28;20113;-65
2021/12/20 04:55:14;;;;;;;12.45;6.75;;;;;;;;;;5073274;28;20116;-66
2021/12/20 04:57:41;;;;;;;9.73;5.72;;;;;;;;;;5071854;28;20123;-65
2021/12/20 05:00:10;;;;;;;9.45;6.05;;;;;;;;;;5073187;28;20056;-66
2021/12/20 05:02:36;;;;;;;13.30;5.90;;;;;;;;;;5073187;28;20052;-65
2021/12/20 05:05:03;;;;;;;10.82;5.78;;;;;;;;;;5073093;28;20302;-64
2021/12/20 05:07:29;;;;;;;10.65;6.57;;;;;;;;;;5073038;28;20111;-66
2021/12/20 05:10:00;;;;;;;10.80;6.38;;;;;;;;;;5073061;28;20108;-67
2021/12/20 05:12:26;;;;;;;9.70;6.20;;;;;;;;;;5073167;28;20115;-67
2021/12/20 05:14:52;;;;;;;11.68;6.20;;;;;;;;;;5073297;28;20028;-66
2021/12/20 05:17:18;;;;;;;7.22;5.47;;;;;;;;;;5073269;28;20078;-66
2021/12/20 05:19:45;;;;;;;9.00;5.15;;;;;;;;;;5071632;28;20021;-67
2021/12/20 05:22:11;;;;;;;7.38;4.85;;;;;;;;;;5072261;28;20024;-67
2021/12/20 05:24:38;;;;;;;7.95;5.85;;;;;;;;;;5071578;28;20522;-67
2021/12/20 05:27:05;;;;;;;9.02;5.28;;;;;;;;;;5072935;28;20104;-66
2021/12/20 05:29:31;;;;;;;11.52;6.03;;;;;;;;;;5071531;28;20114;-66
2021/12/20 05:31:58;;;;;;;7.65;5.32;;;;;;;;;;5073149;28;20085;-67
2021/12/20 05:34:25;;;;;;;8.30;4.80;;;;;;;;;;5072834;28;20089;-66
2021/12/20 05:36:51;;;;;;;7.47;4.65;;;;;;;;;;5071487;28;20547;-67
2021/12/20 05:39:17;;;;;;;6.38;4.65;;;;;;;;;;5071442;28;20072;-63
2021/12/20 05:41:43;;;;;;;5.82;4.25;;;;;;;;;;5072812;28;20043;-65
2021/12/20 05:44:09;;;;;;;9.50;5.75;;;;;;;;;;5073021;28;20358;-64
2021/12/20 05:46:36;;;;;;;7.13;4.50;;;;;;;;;;5072600;28;20457;-65
2021/12/20 05:49:02;;;;;;;10.30;5.13;;;;;;;;;;5072699;28;20106;-65
2021/12/20 05:51:28;;;;;;;7.65;4.82;;;;;;;;;;5070911;28;20135;-64
2021/12/20 05:53:55;;;;;;;9.60;5.38;;;;;;;;;;5072360;28;20354;-63
2021/12/20 05:56:21;;;;;;;10.98;5.70;;;;;;;;;;5071347;28;20063;-64
2021/12/20 05:58:47;;;;;;;10.60;5.68;;;;;;;;;;5072567;28;20056;-65
2021/12/20 06:01:13;;;;;;;11.85;5.63;;;;;;;;;;5071450;28;20029;-65
2021/12/20 06:03:40;;;;;;;13.15;7.13;;;;;;;;;;5071210;28;20469;-64
2021/12/20 06:06:08;;;;;;;10.85;5.97;;;;;;;;;;5072474;28;20075;-64
2021/12/20 06:08:34;;;;;;;10.85;5.07;;;;;;;;;;5071202;28;20086;-66
2021/12/20 06:11:00;;;;;;;11.15;5.45;;;;;;;;;;5071052;28;20461;-66
2021/12/20 06:13:27;;;;;;;9.88;5.65;;;;;;;;;;5072115;28;20060;-66
2021/12/20 06:15:53;;;;;;;10.57;5.45;;;;;;;;;;5072148;28;20101;-66
2021/12/20 06:18:19;;;;;;;10.63;5.97;;;;;;;;;;5072347;28;20032;-65
2021/12/20 06:20:45;;;;;;;17.70;10.32;;;;;;;;;;5072382;28;20059;-66
2021/12/20 06:23:12;;;;;;;15.75;6.15;;;;;;;;;;5072338;28;20039;-66
2021/12/20 06:25:38;;;;;;;9.70;6.30;;;;;;;;;;5072300;28;20031;-64
2021/12/20 06:28:05;;;;;;;9.05;6.22;;;;;;;;;;5072156;28;20123;-64
2021/12/20 06:30:31;;;;;;;13.07;5.43;;;;;;;;;;5072106;28;20476;-67
2021/12/20 06:32:57;;;;;;;11.05;5.85;;;;;;;;;;5072300;28;20029;-64
2021/12/20 06:35:24;;;;;;;17.50;5.80;;;;;;;;;;5074455;28;20029;-64
2021/12/20 06:37:59;;;;;;;8.68;5.07;;;;;;;;;;5075694;28;20111;-66
2021/12/20 06:40:26;;;;;;;9.43;5.53;;;;;;;;;;5075749;28;20525;-65
2021/12/20 06:42:52;;;;;;;12.00;5.38;;;;;;;;;;5075625;28;20028;-63
2021/12/20 06:45:18;;;;;;;9.10;5.72;;;;;;;;;;5075684;28;20024;-65
2021/12/20 06:47:45;;;;;;;9.90;4.65;;;;;;;;;;5073961;28;20127;-67
2021/12/20 06:50:11;;;;;;;10.07;5.82;;;;;;;;;;5075422;28;20052;-66
2021/12/20 06:52:37;;;;;;;9.25;5.45;;;;;;;;;;5075365;28;20024;-66
2021/12/20 06:55:04;;;;;;;14.25;7.22;;;;;;;;;;5075111;28;20611;-64
2021/12/20 06:57:30;;;;;;;14.90;8.80;;;;;;;;;;5075548;28;20056;-64
2021/12/20 06:59:57;;;;;;;21.70;12.57;;;;;;;;;;5074961;28;20028;-66
2021/12/20 07:02:23;;;;;;;26.98;11.85;;;;;;;;;;5075243;28;20248;-66
2021/12/20 07:04:49;;;;;;;82.18;39.95;;;;;;;;;;5074860;28;20100;-67
2021/12/20 07:07:16;;;;;;;51.67;28.55;;;;;;;;;;5075079;28;20033;-65
2021/12/20 07:09:42;;;;;;;19.08;11.15;;;;;;;;;;5073783;28;20450;-64
2021/12/20 07:12:08;;;;;;;14.75;8.25;;;;;;;;;;5075046;28;20377;-65
2021/12/20 07:14:35;;;;;;;12.15;6.57;;;;;;;;;;5075078;28;20548;-65
2021/12/20 07:17:01;;;;;;;15.95;10.85;;;;;;;;;;5074852;28;20025;-66
2021/12/20 07:19:27;;;;;;;20.40;12.48;;;;;;;;;;5075087;28;20016;-66
2021/12/20 07:21:53;;;;;;;22.73;12.63;;;;;;;;;;5080764;28;20028;-67
2021/12/20 07:24:19;;;;;;;32.05;13.48;;;;;;;;;;5094715;28;20024;-65
2021/12/20 07:26:45;;;;;;;38.03;13.48;;;;;;;;;;5094716;28;20046;-64
2021/12/20 07:29:12;;;;;;;30.35;12.15;;;;;;;;;;5093371;28;20073;-66
2021/12/20 07:31:38;;;;;;;24.42;10.95;;;;;;;;;;5093710;28;20373;-64
2021/12/20 07:34:07;;;;;;;26.55;10.75;;;;;;;;;;5094580;28;20032;-66
2021/12/20 07:36:33;;;;;;;23.80;10.45;;;;;;;;;;5093502;28;20492;-65
2021/12/20 07:39:00;;;;;;;22.38;10.30;;;;;;;;;;5092536;28;20121;-64
2021/12/20 07:41:26;;;;;;;18.15;10.05;;;;;;;;;;5094658;28;20025;-64
2021/12/20 07:43:52;;;;;;;18.35;8.45;;;;;;;;;;5094245;28;20506;-63
2021/12/20 07:46:19;;;;;;;15.50;7.72;;;;;;;;;;5094320;28;20032;-64
2021/12/20 07:48:45;;;;;;;12.25;7.05;;;;;;;;;;5093717;28;20028;-65
2021/12/20 07:51:11;;;;;;;15.23;8.68;;;;;;;;;;5089578;28;20428;-66
2021/12/20 07:53:38;;;;;;;16.92;9.18;;;;;;;;;;5093249;28;20036;-67
2021/12/20 07:56:05;;;;;;;24.08;12.38;;;;;;;;;;5092745;28;20024;-68
2021/12/20 07:58:31;;;;;;;33.22;12.23;;;;;;;;;;5094556;28;20039;-65
2021/12/20 08:00:58;;;;;;;32.53;11.48;;;;;;;;;;5094018;28;20473;-67
2021/12/20 08:03:25;;;;;;;30.35;15.32;;;;;;;;;;5094264;28;20059;-67
2021/12/20 08:05:51;;;;;;;16.77;8.25;;;;;;;;;;5093900;28;20144;-68
2021/12/20 08:08:17;;;;;;;16.92;7.50;;;;;;;;;;5092720;28;20024;-69
2021/12/20 08:10:44;;;;;;;17.58;8.20;;;;;;;;;;5093915;28;20036;-67
2021/12/20 08:13:12;;;;;;;16.00;8.23;;;;;;;;;;5092497;28;20139;-64
2021/12/20 08:15:38;;;;;;;19.05;9.27;;;;;;;;;;5090470;28;20081;-66
2021/12/20 08:18:06;;;;;;;21.20;9.75;;;;;;;;;;5094014;28;20093;-67
2021/12/20 08:20:33;;;;;;;26.73;10.82;;;;;;;;;;5093520;28;20032;-66
2021/12/20 08:23:01;;;;;;;20.20;10.50;;;;;;;;;;5093894;28;20024;-64
2021/12/20 08:25:27;;;;;;;24.90;13.55;;;;;;;;;;5093283;28;20076;-65
2021/12/20 08:27:53;;;;;;;27.13;14.32;;;;;;;;;;5093792;28;20044;-64
2021/12/20 08:30:22;;;;;;;33.58;17.10;;;;;;;;;;5093552;28;20557;-65
2021/12/20 08:32:49;;;;;;;73.20;33.60;;;;;;;;;;5093712;28;20027;-65
2021/12/20 08:35:15;;;;;;;32.78;16.58;;;;;;;;;;5093701;28;20024;-66
2021/12/20 08:37:42;;;;;;;33.53;16.67;;;;;;;;;;5093514;28;20103;-66
2021/12/20 08:40:11;;;;;;;28.23;14.30;;;;;;;;;;5092193;28;20032;-64
2021/12/20 08:42:37;;;;;;;23.80;10.98;;;;;;;;;;5093070;28;20384;-65
2021/12/20 08:45:04;;;;;;;16.92;9.52;;;;;;;;;;5091891;28;20047;-66
2021/12/20 08:47:32;;;;;;;23.75;12.63;;;;;;;;;;5091960;28;20380;-64
2021/12/20 08:49:59;;;;;;;12.48;8.38;;;;;;;;;;5093294;28;20046;-62
2021/12/20 08:52:25;;;;;;;32.40;13.88;;;;;;;;;;5093187;28;20095;-64
2021/12/20 08:54:52;;;;;;;13.02;6.53;;;;;;;;;;5092673;28;20028;-64
2021/12/20 08:57:18;;;;;;;19.83;9.98;;;;;;;;;;5090755;28;20032;-65
2021/12/20 08:59:44;;;;;;;14.93;7.07;;;;;;;;;;5093022;28;20502;-64
2021/12/20 09:02:10;;;;;;;19.63;9.40;;;;;;;;;;5093003;28;20444;-64
2021/12/20 09:04:37;;;;;;;11.77;6.13;;;;;;;;;;5091486;28;20024;-62
2021/12/20 09:07:04;;;;;;;11.45;6.28;;;;;;;;;;5090345;28;20054;-63
2021/12/20 09:09:36;;;;;;;15.65;6.22;;;;;;;;;;5093016;28;20358;-63
2021/12/20 09:12:03;;;;;;;15.23;8.63;;;;;;;;;;5093107;28;20024;-63
2021/12/20 09:14:32;;;;;;;12.88;7.47;;;;;;;;;;5093095;28;20106;-63
2021/12/20 09:16:59;;;;;;;14.88;4.93;;;;;;;;;;5091651;28;20071;-63
2021/12/20 09:19:25;;;;;;;7.50;4.20;;;;;;;;;;5090900;28;20035;-62
2021/12/20 09:21:51;;;;;;;323.27;126.15;;;;;;;;;;5092503;28;20427;-62
2021/12/20 09:24:17;;;;;;;19.40;11.88;;;;;;;;;;5091297;28;20038;-62
2021/12/20 09:26:43;;;;;;;18.40;10.82;;;;;;;;;;5092386;28;20920;-62
2021/12/20 09:29:10;;;;;;;11.70;6.00;;;;;;;;;;5091533;28;20035;-62
2021/12/20 09:31:36;;;;;;;25.08;13.35;;;;;;;;;;5091478;28;20107;-63
2021/12/20 09:34:02;;;;;;;15.85;9.27;;;;;;;;;;5092713;28;20437;-62
2021/12/20 09:36:29;;;;;;;9.43;6.90;;;;;;;;;;5092587;28;20032;-63
2021/12/20 09:38:58;;;;;;;8.15;5.65;;;;;;;;;;5092863;28;20028;-63
2021/12/20 09:42:00;;;;;;;9.75;6.18;;;;;;;;;;5092893;28;20380;-63
2021/12/20 09:44:14;;;;;;;9.85;5.43;;;;;;;;;;5092390;28;20039;-62
2021/12/20 09:46:41;;;;;;;20.92;4.72;;;;;;;;;;5092449;28;20116;-62
2021/12/20 09:49:08;;;;;;;7.78;4.38;;;;;;;;;;5091338;28;20031;-62
2021/12/20 09:51:34;;;;;;;7.43;3.90;;;;;;;;;;5091202;28;20484;-63
2021/12/20 09:54:00;;;;;;;16.48;8.80;;;;;;;;;;5092635;28;20111;-63
2021/12/20 09:56:28;;;;;;;7.32;4.13;;;;;;;;;;5092670;28;20024;-62
2021/12/20 09:58:55;;;;;;;60.92;26.88;;;;;;;;;;5092577;28;20032;-63
2021/12/20 10:01:22;;;;;;;26.75;15.20;;;;;;;;;;5092478;28;20396;-65
2021/12/20 10:03:49;;;;;;;15.02;4.30;;;;;;;;;;5091734;28;20024;-65
2021/12/20 10:06:16;;;;;;;7.70;4.72;;;;;;;;;;5092194;28;20028;-62
2021/12/20 10:08:50;;;;;;;10.57;4.22;;;;;;;;;;5091766;27;20381;-63
2021/12/20 10:11:19;;;;;;;17.85;7.32;;;;;;;;;;5096350;28;20082;-62
2021/12/20 10:13:46;;;;;;;14.45;6.13;;;;;;;;;;5111797;28;20026;-64
2021/12/20 10:16:19;;;;;;;50.70;22.50;;;;;;;;;;5096203;28;20038;-63
2021/12/20 10:18:45;;;;;;;5.88;3.72;;;;;;;;;;5096197;28;20095;-65
2021/12/20 10:21:11;;;;;;;11.63;6.78;;;;;;;;;;5096055;28;20020;-62
2021/12/20 10:23:46;;;;;;;21.30;13.80;;;;;;;;;;5095818;28;20020;-62
2021/12/20 10:26:13;;;;;;;9.60;5.85;;;;;;;;;;5096017;28;20368;-62
2021/12/20 10:28:39;;;;;;;13.20;7.00;;;;;;;;;;5095473;28;20016;-62
2021/12/20 10:31:09;;;;;;;17.38;7.18;;;;;;;;;;5094185;28;20020;-62
2021/12/20 10:33:35;;;;;;;26.02;18.23;;;;;;;;;;5094530;28;20460;-62
2021/12/20 10:36:13;;;;;;;20.17;11.77;;;;;;;;;;5094764;28;20035;-62
2021/12/20 10:38:44;;;;;;;10.82;7.47;;;;;;;;;;5094783;28;20516;-62
2021/12/20 10:41:15;;;;;;;9.30;5.53;;;;;;;;;;5095579;28;20016;-62
2021/12/20 10:43:49;;;;;;;4.45;3.30;;;;;;;;;;5095396;28;20087;-61
2021/12/20 10:46:15;;;;;;;11.02;4.82;;;;;;;;;;5095665;28;20036;-62
2021/12/20 10:48:42;;;;;;;10.50;6.20;;;;;;;;;;5095594;28;20099;-61
2021/12/20 10:51:40;;;;;;;5.20;3.75;;;;;;;;;;5095001;28;20118;-64
2021/12/20 10:54:10;;;;;;;13.60;8.13;;;;;;;;;;5032627;28;20091;-62
2021/12/20 10:56:41;;;;;;;11.18;5.10;;;;;;;;;;5032818;28;20038;-64
2021/12/20 10:59:09;;;;;;;8.35;4.82;;;;;;;;;;5033010;28;20128;-67
2021/12/20 11:04:16;;;;;;;12.93;6.40;;;;;;;;;;5032680;28;20036;-73
2021/12/20 11:09:17;;;;;;;8.18;4.45;;;;;;;;;;5032388;28;20486;-68
2021/12/20 11:11:52;;;;;;;6.45;3.63;;;;;;;;;;5032341;28;20033;-69
2021/12/20 11:14:19;;;;;;;8.48;4.55;;;;;;;;;;5032457;28;20034;-70
2021/12/20 11:16:49;;;;;;;13.70;5.10;;;;;;;;;;5032415;28;20041;-69
2021/12/20 11:19:15;;;;;;;11.88;5.68;;;;;;;;;;5031228;28;20040;-67
2021/12/20 11:21:51;;;;;;;19.95;9.57;;;;;;;;;;5032191;28;20094;-70
2021/12/20 11:24:19;;;;;;;191.25;97.47;;;;;;;;;;5032241;28;20034;-66
2021/12/20 11:26:46;;;;;;;8.65;5.35;;;;;;;;;;5032193;28;20033;-68
2021/12/20 11:29:12;;;;;;;15.82;7.20;;;;;;;;;;5051272;28;20119;-66
2021/12/20 11:31:39;;;;;;;12.48;5.43;;;;;;;;;;5094630;28;20029;-65
2021/12/20 11:34:05;;;;;;;8.20;4.22;;;;;;;;;;5094734;28;20035;-65
2021/12/20 11:36:32;;;;;;;8.98;4.30;;;;;;;;;;5093369;28;20028;-67
2021/12/20 11:38:58;;;;;;;11.43;4.50;;;;;;;;;;5094383;28;20020;-66
2021/12/20 11:41:26;;;;;;;7.43;3.83;;;;;;;;;;5092754;28;20027;-69
2021/12/20 11:43:53;;;;;;;7.00;3.65;;;;;;;;;;5093132;28;20028;-66
2021/12/20 11:46:21;;;;;;;6.25;2.90;;;;;;;;;;5094440;28;20036;-65
2021/12/20 11:48:47;;;;;;;12.50;6.38;;;;;;;;;;5094316;28;20044;-65
2021/12/20 11:51:13;;;;;;;15.65;5.18;;;;;;;;;;5093784;28;20132;-67
2021/12/20 11:53:40;;;;;;;32.72;14.40;;;;;;;;;;5094040;28;20036;-68
2021/12/20 11:56:07;;;;;;;22.67;9.32;;;;;;;;;;5094209;28;20028;-70
2021/12/20 11:58:34;;;;;;;24.77;9.48;;;;;;;;;;5094176;28;20055;-72
2021/12/20 12:01:00;;;;;;;14.57;6.00;;;;;;;;;;5094384;28;20091;-71
2021/12/20 12:03:34;;;;;;;17.13;7.20;;;;;;;;;;5094068;28;20031;-72
2021/12/20 12:06:03;;;;;;;11.90;5.53;;;;;;;;;;5094132;28;20020;-69
2021/12/20 12:08:31;;;;;;;7.53;3.78;;;;;;;;;;5092803;28;20118;-71
2021/12/20 12:10:59;;;;;;;14.20;6.65;;;;;;;;;;5093902;28;20024;-66
2021/12/20 12:13:28;;;;;;;17.85;6.68;;;;;;;;;;5093778;28;20488;-67
2021/12/20 12:16:05;;;;;;;14.05;6.28;;;;;;;;;;5093783;28;20032;-66
2021/12/20 12:18:45;;;;;;;8.65;4.93;;;;;;;;;;5092413;28;20491;-64
2021/12/20 12:21:29;;;;;;;55.75;32.17;;;;;;;;;;5092558;28;20031;-67
2021/12/20 12:23:55;;;;;;;12.43;5.72;;;;;;;;;;5092311;28;20468;-68
2021/12/20 12:26:31;;;;;;;16.25;7.80;;;;;;;;;;5093881;28;20113;-66
2021/12/20 12:28:57;;;;;;;14.20;7.05;;;;;;;;;;5092300;28;20023;-68
2021/12/20 12:31:24;;;;;;;13.68;6.85;;;;;;;;;;5093362;28;20056;-67
2021/12/20 12:34:06;;;;;;;29.58;12.45;;;;;;;;;;5093670;28;20122;-70
2021/12/20 12:36:40;;;;;;;21.15;8.13;;;;;;;;;;5093924;28;20039;-72
2021/12/20 12:39:12;;;;;;;12.07;5.65;;;;;;;;;;5092108;28;20123;-70
2021/12/20 12:41:49;;;;;;;19.90;7.97;;;;;;;;;;5093259;28;20031;-69
2021/12/20 12:44:19;;;;;;;14.10;5.50;;;;;;;;;;5092062;28;20118;-70
2021/12/20 12:46:48;;;;;;;7.75;4.30;;;;;;;;;;5093261;28;20020;-67
2021/12/20 12:49:29;;;;;;;18.60;8.23;;;;;;;;;;5091363;28;20079;-67
2021/12/20 12:52:01;;;;;;;21.95;7.60;;;;;;;;;;5090345;28;20114;-67
2021/12/20 12:54:33;;;;;;;23.42;6.80;;;;;;;;;;5092846;28;20032;-67
2021/12/20 12:57:12;;;;;;;14.02;6.93;;;;;;;;;;5093170;28;20110;-69
2021/12/20 12:59:42;;;;;;;29.13;10.40;;;;;;;;;;5093316;28;20047;-67
2021/12/20 13:02:13;;;;;;;14.20;6.27;;;;;;;;;;5092821;28;20095;-67
2021/12/20 13:04:46;;;;;;;10.73;5.63;;;;;;;;;;5092047;28;20746;-68
2021/12/20 13:07:19;;;;;;;14.68;6.30;;;;;;;;;;5089041;28;20039;-67
2021/12/20 13:09:47;;;;;;;13.23;7.35;;;;;;;;;;5091373;28;20028;-68
2021/12/20 13:12:24;;;;;;;13.85;4.60;;;;;;;;;;5091720;28;20156;-68
2021/12/20 13:14:56;;;;;;;14.75;5.78;;;;;;;;;;5091703;28;20376;-68
2021/12/20 13:17:34;;;;;;;14.70;4.88;;;;;;;;;;5091740;28;20063;-67
2021/12/20 13:22:57;;;;;;;14.00;5.32;;;;;;;;;;5089772;28;20028;-69
2021/12/20 13:25:39;;;;;;;19.02;7.95;;;;;;;;;;5092907;28;20025;-68
2021/12/20 13:28:06;;;;;;;15.55;7.43;;;;;;;;;;5092860;28;20078;-66
2021/12/20 13:30:33;;;;;;;17.40;7.88;;;;;;;;;;5092840;28;20102;-68
2021/12/20 13:32:59;;;;;;;25.02;10.40;;;;;;;;;;5092844;28;20032;-69
2021/12/20 13:35:28;;;;;;;22.20;9.52;;;;;;;;;;5091287;28;20028;-67
2021/12/20 13:38:10;;;;;;;24.17;11.10;;;;;;;;;;5091223;28;20113;-67
2021/12/20 13:40:55;;;;;;;31.77;11.98;;;;;;;;;;5092901;28;20016;-67
2021/12/20 13:43:32;;;;;;;19.38;8.10;;;;;;;;;;5095068;28;20039;-69
2021/12/20 13:46:03;;;;;;;67.25;30.13;;;;;;;;;;5095303;28;20025;-68
2021/12/20 13:48:29;;;;;;;19.95;10.00;;;;;;;;;;5096875;28;20028;-67
2021/12/20 13:50:55;;;;;;;30.80;12.98;;;;;;;;;;5095217;28;20048;-66
2021/12/20 13:53:32;;;;;;;14.80;7.03;;;;;;;;;;5096904;28;20036;-68
2021/12/20 13:55:58;;;;;;;22.75;9.98;;;;;;;;;;5096830;28;20031;-68
2021/12/20 13:58:26;;;;;;;23.02;8.30;;;;;;;;;;5096711;28;20031;-67
2021/12/20 14:00:52;;;;;;;27.63;13.15;;;;;;;;;;5095298;28;20047;-67
2021/12/20 14:03:18;;;;;;;26.63;13.73;;;;;;;;;;5095304;28;20144;-68
2021/12/20 14:05:44;;;;;;;20.45;9.20;;;;;;;;;;5096571;28;20077;-67
2021/12/20 14:08:20;;;;;;;37.42;17.83;;;;;;;;;;5096395;28;20139;-66
2021/12/20 14:10:46;;;;;;;27.30;12.43;;;;;;;;;;5096106;28;20490;-68
2021/12/20 14:13:16;;;;;;;23.13;10.95;;;;;;;;;;5096583;28;20032;-68
2021/12/20 14:15:47;;;;;;;25.75;10.00;;;;;;;;;;5094928;28;20085;-68
2021/12/20 14:18:18;;;;;;;23.73;13.65;;;;;;;;;;5094797;28;20036;-68
2021/12/20 14:20:46;;;;;;;19.17;9.00;;;;;;;;;;5096203;28;20069;-68
2021/12/20 14:23:15;;;;;;;29.13;11.98;;;;;;;;;;5096142;28;20016;-68
2021/12/20 14:25:43;;;;;;;35.65;15.23;;;;;;;;;;5094863;28;20036;-68
2021/12/20 14:28:09;;;;;;;30.42;11.48;;;;;;;;;;5096096;28;20492;-67
2021/12/20 14:30:36;;;;;;;28.77;11.27;;;;;;;;;;5096026;28;20024;-68
2021/12/20 14:33:31;;;;;;;23.52;10.52;;;;;;;;;;5094672;28;20024;-66
2021/12/20 14:36:00;;;;;;;29.95;13.25;;;;;;;;;;5082445;28;20085;-65
2021/12/20 14:38:28;;;;;;;18.10;9.18;;;;;;;;;;5094727;28;20418;-68
2021/12/20 14:40:54;;;;;;;14.02;6.15;;;;;;;;;;5095893;28;20110;-69
2021/12/20 14:43:22;;;;;;;17.65;7.88;;;;;;;;;;5095700;28;20027;-67
2021/12/20 14:45:52;;;;;;;17.58;8.00;;;;;;;;;;5095704;28;20476;-69
2021/12/20 14:48:22;;;;;;;20.65;11.65;;;;;;;;;;5094468;28;20098;-69
2021/12/20 14:50:50;;;;;;;20.80;10.02;;;;;;;;;;5095677;28;20048;-68
2021/12/20 14:53:21;;;;;;;23.35;12.20;;;;;;;;;;5094389;28;20055;-69